Time;durP1;ratioP1;P1;durP2;ratioP2;P2;SDS_P1;SDS_P2;PMS_P1;PMS_P2;Temp;Humidity;BMP_temperature;BMP_pressure;BME280_temperature;BME280_humidity;BME280_pressure;Samples;Min_cycle;Max_cycle;Signal;HPM_P1;HPM_P2
2022/04/18 00:03:55;;;;;;;1.42;1.10;;;;;;;;;;12309472;28;20062;-79
2022/04/18 00:09:57;;;;;;;1.35;1.00;;;;;;;;;;12310290;28;20054;-79
2022/04/18 00:15:58;;;;;;;1.17;1.00;;;;;;;;;;12300364;29;20067;-79
2022/04/18 00:22:00;;;;;;;1.20;1.00;;;;;;;;;;12283111;29;20034;-79
2022/04/18 00:28:02;;;;;;;2.35;0.85;;;;;;;;;;12300424;29;20042;-79
2022/04/18 00:34:04;;;;;;;1.52;1.08;;;;;;;;;;12299850;29;20055;-79
2022/04/18 00:40:07;;;;;;;1.17;1.13;;;;;;;;;;12282759;29;20047;-79
2022/04/18 00:46:09;;;;;;;;;;;;;;;;;;12283698;29;20046;-79
2022/04/18 00:52:10;;;;;;;1.05;1.00;;;;;;;;;;12282586;28;20375;-79
2022/04/18 00:58:12;;;;;;;1.23;0.90;;;;;;;;;;12291285;29;20061;-79
2022/04/18 01:04:14;;;;;;;1.83;0.97;;;;;;;;;;12291651;29;20039;-79
2022/04/18 01:10:16;;;;;;;1.70;1.52;;;;;;;;;;12307482;29;20404;-79
2022/04/18 01:16:18;;;;;;;1.60;1.20;;;;;;;;;;12291568;29;20495;-79
2022/04/18 01:22:44;;;;;;;2.33;1.60;;;;;;;;;;12290753;29;20038;-80
2022/04/18 01:29:05;;;;;;;2.55;1.50;;;;;;;;;;12306406;28;20046;-79
2022/04/18 01:35:08;;;;;;;1.80;1.50;;;;;;;;;;12290284;29;20047;-79
2022/04/18 01:41:10;;;;;;;2.20;1.45;;;;;;;;;;12307787;28;20066;-79
2022/04/18 01:47:11;;;;;;;2.47;1.55;;;;;;;;;;12306215;29;20063;-79
2022/04/18 01:53:14;;;;;;;2.53;1.93;;;;;;;;;;12289524;29;20043;-79
2022/04/18 01:59:17;;;;;;;4.32;1.73;;;;;;;;;;12289084;29;20035;-79
2022/04/18 02:05:19;;;;;;;3.13;2.30;;;;;;;;;;12288617;28;20043;-79
2022/04/18 02:11:21;;;;;;;3.35;2.10;;;;;;;;;;12288586;29;20043;-79
2022/04/18 02:17:22;;;;;;;3.30;2.45;;;;;;;;;;12288222;29;20031;-79
2022/04/18 02:23:24;;;;;;;3.50;3.20;;;;;;;;;;12288143;29;20082;-79
2022/04/18 02:29:26;;;;;;;3.35;3.05;;;;;;;;;;12286787;29;20039;-79
2022/04/18 02:35:28;;;;;;;3.57;2.83;;;;;;;;;;12287140;29;20046;-79
2022/04/18 02:41:32;;;;;;;3.70;3.03;;;;;;;;;;12305289;29;20070;-79
2022/04/18 02:47:34;;;;;;;3.15;2.65;;;;;;;;;;12286679;29;20035;-79
2022/04/18 02:53:37;;;;;;;3.47;3.28;;;;;;;;;;12286567;29;20048;-79
2022/04/18 02:59:41;;;;;;;3.90;3.60;;;;;;;;;;12286511;29;20039;-79
2022/04/18 03:05:43;;;;;;;6.18;3.95;;;;;;;;;;12286244;29;20043;-79
2022/04/18 03:11:46;;;;;;;;;;;;;;;;;;12286019;29;20488;-79
2022/04/18 03:17:49;;;;;;;3.20;2.72;;;;;;;;;;12285098;28;19933;-80
2022/04/18 03:23:52;;;;;;;3.42;3.03;;;;;;;;;;12305196;28;20039;-79
2022/04/18 03:30:15;;;;;;;2.78;2.58;;;;;;;;;;12285543;29;20074;-79
2022/04/18 03:42:42;;;;;;;3.88;2.75;;;;;;;;;;12285273;29;20404;-79
2022/04/18 03:48:49;;;;;;;3.63;2.65;;;;;;;;;;12285110;29;20039;-79
2022/04/18 03:54:51;;;;;;;2.38;2.17;;;;;;;;;;12284000;29;20511;-79
2022/04/18 04:01:00;;;;;;;2.08;1.92;;;;;;;;;;12283680;29;20031;-79
2022/04/18 04:07:02;;;;;;;2.95;2.50;;;;;;;;;;12283402;29;20035;-79
2022/04/18 04:13:04;;;;;;;2.72;2.53;;;;;;;;;;12283896;29;20050;-79
2022/04/18 04:19:14;;;;;;;2.55;2.35;;;;;;;;;;12300716;29;20042;-79
2022/04/18 04:25:16;;;;;;;3.22;3.00;;;;;;;;;;12300176;29;20031;-79
2022/04/18 04:31:18;;;;;;;2.72;2.53;;;;;;;;;;12290351;29;20078;-79
2022/04/18 04:37:20;;;;;;;3.55;2.67;;;;;;;;;;12292621;29;20386;-79
2022/04/18 04:43:28;;;;;;;3.10;2.80;;;;;;;;;;12292635;29;20051;-79
2022/04/18 04:49:32;;;;;;;3.17;2.78;;;;;;;;;;12291398;29;20042;-79
2022/04/18 04:55:48;;;;;;;3.15;2.65;;;;;;;;;;12291298;29;20108;-79
2022/04/18 05:01:50;;;;;;;2.40;2.30;;;;;;;;;;12303229;28;20046;-79
2022/04/18 05:07:52;;;;;;;2.80;2.60;;;;;;;;;;12297014;29;20481;-79
2022/04/18 05:13:56;;;;;;;2.90;2.70;;;;;;;;;;12290642;29;20039;-79
2022/04/18 05:20:16;;;;;;;2.67;2.45;;;;;;;;;;12307995;29;20035;-79
2022/04/18 05:26:18;;;;;;;3.13;2.88;;;;;;;;;;12290236;29;20047;-80
2022/04/18 05:32:21;;;;;;;3.03;2.80;;;;;;;;;;12289597;29;20066;-79
2022/04/18 05:38:34;;;;;;;2.80;2.60;;;;;;;;;;12307123;28;20074;-79
2022/04/18 05:44:49;;;;;;;2.85;2.58;;;;;;;;;;12289042;29;20035;-79
2022/04/18 05:50:51;;;;;;;3.00;2.77;;;;;;;;;;12289038;29;20043;-79
2022/04/18 05:56:59;;;;;;;3.20;2.38;;;;;;;;;;12289467;29;20043;-79
2022/04/18 06:03:17;;;;;;;2.63;2.42;;;;;;;;;;12288933;29;20055;-79
2022/04/18 06:09:19;;;;;;;3.22;3.03;;;;;;;;;;12288042;29;20043;-79
2022/04/18 06:15:21;;;;;;;3.33;3.08;;;;;;;;;;12288654;29;20050;-79
2022/04/18 06:21:23;;;;;;;2.90;2.70;;;;;;;;;;12288033;29;20035;-79
2022/04/18 06:27:25;;;;;;;2.00;1.90;;;;;;;;;;12304835;28;20499;-79
2022/04/18 06:33:29;;;;;;;2.73;2.53;;;;;;;;;;12305748;28;20055;-79
2022/04/18 06:39:32;;;;;;;2.95;2.15;;;;;;;;;;12286717;29;20059;-79
2022/04/18 06:45:44;;;;;;;1.60;1.50;;;;;;;;;;12303634;29;20036;-79
2022/04/18 06:51:47;;;;;;;1.35;1.25;;;;;;;;;;12285761;28;20039;-79
2022/04/18 06:58:12;;;;;;;1.20;1.10;;;;;;;;;;12283996;29;20051;-79
2022/04/18 07:04:13;;;;;;;1.35;1.10;;;;;;;;;;12286425;29;20058;-79
2022/04/18 07:10:15;;;;;;;1.30;1.20;;;;;;;;;;12285638;29;20507;-79
2022/04/18 07:16:17;;;;;;;2.20;1.10;;;;;;;;;;12301994;29;20275;-79
2022/04/18 07:22:19;;;;;;;1.85;1.33;;;;;;;;;;12294541;28;20034;-79
2022/04/18 07:28:21;;;;;;;1.17;1.08;;;;;;;;;;12293008;29;20039;-79
2022/04/18 07:34:23;;;;;;;3.07;1.40;;;;;;;;;;12284836;29;20507;-80
2022/04/18 07:40:26;;;;;;;;;;;;;;;;;;12284739;29;20382;-79
2022/04/18 07:46:28;;;;;;;1.15;1.05;;;;;;;;;;12283779;29;19910;-79
2022/04/18 07:52:30;;;;;;;1.47;1.37;;;;;;;;;;12301285;29;20050;-79
2022/04/18 07:58:37;;;;;;;2.97;1.67;;;;;;;;;;12300774;29;20054;-79
2022/04/18 08:04:46;;;;;;;1.60;1.50;;;;;;;;;;12288247;28;20043;-79
2022/04/18 08:10:52;;;;;;;1.10;1.00;;;;;;;;;;12293627;29;20119;-79
2022/04/18 08:16:54;;;;;;;1.88;1.13;;;;;;;;;;12293150;29;20035;-79
2022/04/18 08:23:16;;;;;;;1.27;1.05;;;;;;;;;;12314360;28;20058;-79
2022/04/18 08:29:45;;;;;;;0.80;0.77;;;;;;;;;;12281234;29;20043;-79
2022/04/18 08:36:12;;;;;;;1.38;1.10;;;;;;;;;;12297022;29;20400;-78
2022/04/18 08:42:15;;;;;;;1.13;0.90;;;;;;;;;;12291910;29;20055;-79
2022/04/18 08:54:43;;;;;;;1.52;1.02;;;;;;;;;;12291005;29;20054;-79
2022/04/18 09:00:45;;;;;;;2.70;1.88;;;;;;;;;;12292506;29;20031;-79
2022/04/18 09:07:13;;;;;;;1.42;1.33;;;;;;;;;;12294823;29;20499;-79
2022/04/18 09:13:24;;;;;;;1.30;1.20;;;;;;;;;;12290241;28;20043;-79
2022/04/18 09:19:33;;;;;;;1.33;1.23;;;;;;;;;;12289871;29;20038;-79
2022/04/18 09:25:38;;;;;;;1.70;1.60;;;;;;;;;;12290484;29;20404;-79
2022/04/18 09:31:41;;;;;;;2.03;1.83;;;;;;;;;;12289448;29;20063;-79
2022/04/18 09:37:53;;;;;;;3.40;2.10;;;;;;;;;;12289659;29;20036;-79
2022/04/18 09:44:23;;;;;;;2.97;1.92;;;;;;;;;;12309161;28;20047;-79
2022/04/18 09:56:51;;;;;;;3.42;2.50;;;;;;;;;;12288673;29;20378;-79
2022/04/18 10:02:53;;;;;;;2.73;1.87;;;;;;;;;;12288398;28;20046;-78
2022/04/18 10:08:55;;;;;;;2.77;2.37;;;;;;;;;;12288232;29;20511;-79
2022/04/18 10:14:57;;;;;;;2.72;2.47;;;;;;;;;;12304935;29;20417;-79
2022/04/18 10:21:06;;;;;;;3.45;3.15;;;;;;;;;;12287551;29;20519;-79
2022/04/18 10:27:24;;;;;;;2.65;2.00;;;;;;;;;;12304626;28;20408;-79
2022/04/18 10:33:26;;;;;;;3.45;2.05;;;;;;;;;;12296748;28;20062;-80
2022/04/18 10:39:28;;;;;;;;;;;;;;;;;;12287523;29;20050;-79
2022/04/18 10:45:29;;;;;;;2.42;1.60;;;;;;;;;;12303338;29;19910;-79
2022/04/18 10:51:36;;;;;;;1.48;1.35;;;;;;;;;;12285775;29;20524;-80
2022/04/18 10:57:37;;;;;;;1.27;1.17;;;;;;;;;;12285966;29;20477;-79
2022/04/18 11:03:39;;;;;;;1.77;1.67;;;;;;;;;;12302916;29;20047;-79
2022/04/18 11:09:45;;;;;;;2.53;2.27;;;;;;;;;;12285375;29;20038;-79
2022/04/18 11:15:47;;;;;;;1.55;1.45;;;;;;;;;;12285277;29;20054;-79
2022/04/18 11:22:01;;;;;;;1.80;1.70;;;;;;;;;;12318628;28;20039;-79
2022/04/18 11:28:04;;;;;;;1.85;1.70;;;;;;;;;;12284740;29;20042;-78
2022/04/18 11:34:06;;;;;;;1.50;1.33;;;;;;;;;;12301983;29;20051;-79
2022/04/18 11:40:09;;;;;;;1.90;1.58;;;;;;;;;;12283995;29;20408;-79
2022/04/18 11:46:11;;;;;;;2.33;1.50;;;;;;;;;;12302574;29;20054;-79
2022/04/18 11:52:24;;;;;;;1.73;1.27;;;;;;;;;;12284841;29;20047;-79
2022/04/18 11:58:25;;;;;;;2.35;1.70;;;;;;;;;;12285219;29;20034;-79
2022/04/18 12:10:49;;;;;;;2.53;2.05;;;;;;;;;;12301316;29;20492;-78
2022/04/18 12:16:50;;;;;;;1.67;1.48;;;;;;;;;;12301887;29;20043;-79
2022/04/18 12:22:54;;;;;;;3.23;2.00;;;;;;;;;;12301747;29;20039;-78
2022/04/18 12:29:00;;;;;;;2.25;1.73;;;;;;;;;;12283731;29;20396;-78
2022/04/18 12:35:02;;;;;;;1.25;1.15;;;;;;;;;;12283794;29;20374;-78
2022/04/18 12:41:04;;;;;;;2.17;1.97;;;;;;;;;;12298553;28;20063;-78
2022/04/18 12:47:19;;;;;;;3.10;2.25;;;;;;;;;;12299965;29;20511;-78
2022/04/18 12:53:22;;;;;;;1.40;1.20;;;;;;;;;;12290242;29;20062;-79
2022/04/18 12:59:25;;;;;;;2.58;1.70;;;;;;;;;;12308474;29;20035;-79
2022/04/18 13:05:30;;;;;;;3.55;1.40;;;;;;;;;;12291618;29;20191;-79
2022/04/18 13:11:42;;;;;;;1.38;1.27;;;;;;;;;;12308090;29;20385;-79
2022/04/18 13:17:44;;;;;;;;;;;;;;;;;;12308988;29;20043;-79
2022/04/18 13:23:45;;;;;;;2.03;1.67;;;;;;;;;;12307501;28;19914;-79
2022/04/18 13:29:47;;;;;;;2.03;1.50;;;;;;;;;;12290573;29;20050;-79
2022/04/18 13:42:09;;;;;;;1.67;1.20;;;;;;;;;;12290662;29;20404;-79
2022/04/18 13:48:11;;;;;;;1.47;1.37;;;;;;;;;;12306656;29;20519;-79
2022/04/18 13:54:14;;;;;;;1.92;1.30;;;;;;;;;;12306067;29;20047;-78
2022/04/18 14:00:16;;;;;;;1.42;1.33;;;;;;;;;;12287603;28;20046;-79
2022/04/18 14:06:18;;;;;;;1.65;1.55;;;;;;;;;;12306043;28;20408;-79
2022/04/18 14:12:19;;;;;;;0.77;0.77;;;;;;;;;;12288394;29;20054;-79
2022/04/18 14:24:58;;;;;;;1.67;1.48;;;;;;;;;;12233054;29;20055;-79
2022/04/18 14:31:00;;;;;;;1.40;1.30;;;;;;;;;;12304929;29;20058;-80
2022/04/18 14:37:02;;;;;;;2.97;1.35;;;;;;;;;;12288103;29;20043;-79
2022/04/18 14:43:05;;;;;;;1.27;1.17;;;;;;;;;;12302170;29;20063;-80
2022/04/18 14:49:07;;;;;;;1.25;1.15;;;;;;;;;;12286610;29;20651;-80
2022/04/18 14:55:09;;;;;;;1.65;1.40;;;;;;;;;;12303146;29;20043;-80
2022/04/18 15:01:11;;;;;;;2.00;1.77;;;;;;;;;;12286171;29;20409;-80
2022/04/18 15:07:12;;;;;;;1.63;1.52;;;;;;;;;;12286367;29;20039;-80
2022/04/18 15:13:14;;;;;;;2.40;2.20;;;;;;;;;;12285068;28;20043;-80
2022/04/18 15:19:16;;;;;;;2.40;2.13;;;;;;;;;;12285164;29;20397;-80
2022/04/18 15:25:18;;;;;;;3.17;2.88;;;;;;;;;;12300106;29;20546;-80
2022/04/18 15:37:40;;;;;;;1.88;1.67;;;;;;;;;;12284450;29;20058;-80
2022/04/18 15:43:42;;;;;;;4.13;2.92;;;;;;;;;;12284060;29;20046;-80
2022/04/18 15:49:45;;;;;;;1.88;1.70;;;;;;;;;;12300964;29;20039;-80
2022/04/18 15:55:47;;;;;;;1.60;1.50;;;;;;;;;;12283649;29;20050;-79
2022/04/18 16:01:49;;;;;;;1.83;1.73;;;;;;;;;;12300293;28;20047;-78
2022/04/18 16:07:51;;;;;;;2.35;1.90;;;;;;;;;;12284874;29;20365;-79
2022/04/18 16:13:53;;;;;;;2.15;1.42;;;;;;;;;;12283385;29;20043;-79
2022/04/18 16:19:55;;;;;;;2.03;1.70;;;;;;;;;;12284002;29;20392;-80
2022/04/18 16:25:57;;;;;;;1.35;1.25;;;;;;;;;;12287614;28;20050;-80
2022/04/18 16:31:58;;;;;;;1.35;1.25;;;;;;;;;;12309296;29;20043;-79
2022/04/18 16:38:00;;;;;;;1.05;0.93;;;;;;;;;;12292246;29;20480;-80
2022/04/18 16:50:22;;;;;;;1.05;0.70;;;;;;;;;;12291751;29;20046;-79
2022/04/18 16:56:24;;;;;;;1.25;1.15;;;;;;;;;;12291438;29;20058;-79
2022/04/18 17:02:26;;;;;;;0.65;0.47;;;;;;;;;;12308443;28;20027;-79
2022/04/18 17:08:27;;;;;;;0.88;0.88;;;;;;;;;;12290774;29;20050;-79
2022/04/18 17:14:29;;;;;;;0.80;0.80;;;;;;;;;;12303668;28;20047;-79
2022/04/18 17:20:31;;;;;;;0.80;0.80;;;;;;;;;;12290208;29;20047;-78
2022/04/18 17:26:33;;;;;;;0.50;0.50;;;;;;;;;;12290873;29;20050;-78
2022/04/18 17:32:34;;;;;;;0.77;0.60;;;;;;;;;;12290104;28;20397;-79
2022/04/18 17:38:36;;;;;;;0.83;0.83;;;;;;;;;;12293111;29;20040;-78
2022/04/18 17:44:38;;;;;;;1.23;1.13;;;;;;;;;;12301905;29;20301;-78
2022/04/18 17:50:40;;;;;;;1.75;1.65;;;;;;;;;;12289779;29;20035;-79
2022/04/18 17:56:42;;;;;;;1.47;1.37;;;;;;;;;;12304717;28;20047;-78
2022/04/18 18:02:43;;;;;;;1.40;1.30;;;;;;;;;;12305923;28;20035;-78
2022/04/18 18:08:45;;;;;;;1.50;1.40;;;;;;;;;;12288134;29;20038;-78
2022/04/18 18:14:47;;;;;;;1.13;1.07;;;;;;;;;;12305377;29;20043;-78
2022/04/18 18:20:49;;;;;;;1.15;1.05;;;;;;;;;;12290788;29;20396;-79
2022/04/18 18:26:51;;;;;;;1.07;0.90;;;;;;;;;;12287425;29;20030;-78
2022/04/18 18:32:54;;;;;;;0.63;0.60;;;;;;;;;;12303717;28;20050;-78
2022/04/18 18:38:56;;;;;;;0.80;0.80;;;;;;;;;;12303785;29;20054;-78
2022/04/18 18:44:57;;;;;;;0.50;0.50;;;;;;;;;;12303827;29;20042;-79
2022/04/18 18:57:19;;;;;;;1.33;1.10;;;;;;;;;;12303715;29;20047;-79
2022/04/18 19:03:22;;;;;;;1.00;1.00;;;;;;;;;;12286594;29;20031;-78
2022/04/18 19:09:24;;;;;;;1.30;0.90;;;;;;;;;;12285581;29;20031;-78
2022/04/18 19:15:26;;;;;;;1.90;1.03;;;;;;;;;;12284994;29;20396;-78
2022/04/18 19:27:48;;;;;;;2.00;1.42;;;;;;;;;;12301931;29;20043;-78
2022/04/18 19:33:50;;;;;;;2.80;1.70;;;;;;;;;;12301940;29;20697;-79
2022/04/18 19:39:54;;;;;;;1.40;1.00;;;;;;;;;;12308302;29;20027;-78
2022/04/18 19:45:56;;;;;;;1.15;1.00;;;;;;;;;;12321927;28;20032;-78
2022/04/18 19:51:58;;;;;;;1.13;0.97;;;;;;;;;;12283567;29;20408;-78
2022/04/18 19:58:00;;;;;;;1.07;0.97;;;;;;;;;;12282992;29;20043;-78
2022/04/18 20:04:01;;;;;;;2.90;1.80;;;;;;;;;;12284038;29;20035;-78
2022/04/18 20:10:03;;;;;;;1.48;1.13;;;;;;;;;;12283326;29;20485;-77
2022/04/18 20:16:10;;;;;;;1.90;1.40;;;;;;;;;;12283437;29;20046;-77
2022/04/18 20:22:18;;;;;;;0.80;0.80;;;;;;;;;;12297214;28;20047;-78
2022/04/18 20:28:20;;;;;;;0.95;0.93;;;;;;;;;;12283258;29;20039;-78
2022/04/18 20:34:23;;;;;;;1.63;1.25;;;;;;;;;;12283349;29;20058;-77
2022/04/18 20:40:27;;;;;;;1.33;1.23;;;;;;;;;;12283335;29;20051;-77
2022/04/18 20:46:29;;;;;;;0.90;0.90;;;;;;;;;;12283216;29;20035;-78
2022/04/18 20:58:51;;;;;;;1.05;1.00;;;;;;;;;;12299977;29;20027;-79
2022/04/18 21:04:53;;;;;;;0.98;0.98;;;;;;;;;;12315084;29;20047;-78
2022/04/18 21:10:55;;;;;;;1.17;1.07;;;;;;;;;;12284928;28;20039;-78
2022/04/18 21:16:57;;;;;;;2.90;1.50;;;;;;;;;;12290426;29;20050;-78
2022/04/18 21:22:59;;;;;;;2.13;1.60;;;;;;;;;;12290168;29;20035;-78
2022/04/18 21:29:01;;;;;;;1.80;1.70;;;;;;;;;;12305930;28;20043;-78
2022/04/18 21:35:03;;;;;;;2.00;1.80;;;;;;;;;;12306522;29;20055;-78
2022/04/18 21:41:04;;;;;;;2.27;2.07;;;;;;;;;;12289536;29;20039;-78
2022/04/18 21:47:07;;;;;;;3.05;2.15;;;;;;;;;;12289447;29;20043;-78
2022/04/18 21:53:09;;;;;;;1.80;1.63;;;;;;;;;;12288901;29;20054;-78
2022/04/18 21:59:12;;;;;;;2.00;1.80;;;;;;;;;;12302967;28;20050;-78
2022/04/18 22:05:13;;;;;;;;;;;;;;;;;;12288898;29;20384;-78
2022/04/18 22:11:15;;;;;;;2.50;2.30;;;;;;;;;;12288256;29;19917;-78
2022/04/18 22:17:17;;;;;;;2.72;2.53;;;;;;;;;;12287897;29;20047;-78
2022/04/18 22:29:39;;;;;;;2.20;1.83;;;;;;;;;;12304464;29;20039;-79
2022/04/18 22:35:41;;;;;;;2.05;1.77;;;;;;;;;;12301298;28;20098;-79
2022/04/18 22:41:42;;;;;;;2.83;1.75;;;;;;;;;;12287110;29;20059;-79
2022/04/18 22:47:44;;;;;;;2.17;2.00;;;;;;;;;;12305005;29;20078;-79
2022/04/18 22:53:46;;;;;;;2.50;2.30;;;;;;;;;;12284064;29;20113;-79
2022/04/18 22:59:48;;;;;;;2.00;1.55;;;;;;;;;;12286359;29;20408;-79
2022/04/18 23:05:56;;;;;;;4.50;1.92;;;;;;;;;;12303594;29;20047;-79
2022/04/18 23:11:58;;;;;;;2.13;1.77;;;;;;;;;;12285693;29;20047;-79
2022/04/18 23:18:01;;;;;;;1.70;1.60;;;;;;;;;;12285311;29;20035;-79
2022/04/18 23:24:03;;;;;;;1.63;1.52;;;;;;;;;;12284970;29;20369;-79
2022/04/18 23:30:09;;;;;;;1.88;1.77;;;;;;;;;;12302055;29;20050;-79
2022/04/18 23:36:11;;;;;;;2.03;1.85;;;;;;;;;;12285279;29;20054;-79
2022/04/18 23:42:12;;;;;;;1.83;1.73;;;;;;;;;;12302040;29;20050;-79
2022/04/18 23:48:15;;;;;;;1.80;1.70;;;;;;;;;;12284424;29;20491;-79
2022/04/18 23:54:16;;;;;;;2.03;1.90;;;;;;;;;;12284035;29;20035;-79
